Time;durP1;ratioP1;P1;durP2;ratioP2;P2;SDS_P1;SDS_P2;PMS_P1;PMS_P2;Temp;Humidity;BMP_temperature;BMP_pressure;BME280_temperature;BME280_humidity;BME280_pressure;Samples;Min_cycle;Max_cycle;Signal;HPM_P1;HPM_P2
2022/10/30 00:00:23;;;;;;;9.03;5.83;;;16.50;1.00;;;;;;5058420;28;20285;-61
2022/10/30 00:02:50;;;;;;;12.60;6.40;;;16.50;1.00;;;;;;5064733;28;20202;-54
2022/10/30 00:05:19;;;;;;;13.47;6.60;;;16.50;58.20;;;;;;5053589;28;20257;-54
2022/10/30 00:07:49;;;;;;;14.10;6.17;;;16.50;1.00;;;;;;5056585;28;20210;-54
2022/10/30 00:10:17;;;;;;;7.97;5.53;;;16.40;99.90;;;;;;5059539;28;20694;-53
2022/10/30 00:12:43;;;;;;;12.67;5.80;;;16.30;99.90;;;;;;5056773;28;20217;-53
2022/10/30 00:15:10;;;;;;;8.77;5.87;;;16.30;1.00;;;;;;5055251;28;20214;-53
2022/10/30 00:17:37;;;;;;;8.87;6.07;;;16.30;1.00;;;;;;5058825;28;20312;-54
2022/10/30 00:20:05;;;;;;;14.17;6.20;;;16.30;1.00;;;;;;5055531;28;20563;-54
2022/10/30 00:22:32;;;;;;;11.37;6.10;;;16.30;99.90;;;;;;5058661;28;20291;-55
2022/10/30 00:24:58;;;;;;;15.27;6.43;;;16.40;99.90;;;;;;5061236;28;20488;-53
2022/10/30 00:27:26;;;;;;;11.97;6.33;;;16.30;99.90;;;;;;5059468;28;20222;-60
2022/10/30 00:29:53;;;;;;;11.90;6.70;;;16.30;1.00;;;;;;5056023;28;20193;-55
2022/10/30 00:32:19;;;;;;;12.87;6.20;;;16.20;1.00;;;;;;5060625;28;20246;-53
2022/10/30 00:34:46;;;;;;;12.60;5.87;;;16.30;1.00;;;;;;5043377;28;20226;-54
2022/10/30 00:37:13;;;;;;;18.10;6.00;;;16.10;1.00;;;;;;5059682;28;20195;-55
2022/10/30 00:39:40;;;;;;;10.70;5.73;;;16.10;1.00;;;;;;5061539;28;20199;-55
2022/10/30 00:42:11;;;;;;;12.60;6.20;;;16.10;1.00;;;;;;5057711;28;20845;-54
2022/10/30 00:44:44;;;;;;;12.47;5.40;;;16.00;1.00;;;;;;5059909;28;20771;-55
2022/10/30 00:47:17;;;;;;;13.57;6.10;;;16.00;1.00;;;;;;5057406;28;20197;-55
2022/10/30 00:50:16;;;;;;;15.43;6.37;;;16.10;1.00;;;;;;5060494;28;20656;-54
2022/10/30 00:52:50;;;;;;;9.33;5.87;;;16.10;1.00;;;;;;5061440;28;20289;-53
2022/10/30 00:55:23;;;;;;;9.80;5.60;;;16.10;1.00;;;;;;5064828;28;21094;-55
2022/10/30 00:57:52;;;;;;;14.60;6.17;;;16.10;1.00;;;;;;5060107;28;20198;-55
2022/10/30 01:00:21;;;;;;;12.03;6.27;;;16.00;1.00;;;;;;5059481;28;20722;-54
2022/10/30 01:02:50;;;;;;;13.00;6.33;;;16.10;1.00;;;;;;5058606;28;20205;-54
2022/10/30 01:05:20;;;;;;;10.47;5.87;;;16.10;1.00;;;;;;5058775;28;20241;-54
2022/10/30 01:07:47;;;;;;;15.23;5.53;;;16.10;1.00;;;;;;5060048;28;20211;-54
2022/10/30 01:10:15;;;;;;;10.67;6.03;;;16.10;1.00;;;;;;5061049;28;20233;-53
2022/10/30 01:12:44;;;;;;;11.23;5.50;;;16.20;1.00;;;;;;5059525;28;20198;-55
2022/10/30 01:15:11;;;;;;;15.30;6.23;;;16.10;1.00;;;;;;5058004;28;20190;-55
2022/10/30 01:17:50;;;;;;;9.47;6.60;;;16.00;1.00;;;;;;5060470;28;20206;-54
2022/10/30 01:20:34;;;;;;;15.47;6.40;;;16.00;1.00;;;;;;5060422;28;20581;-54
2022/10/30 01:23:25;;;;;;;10.73;6.60;;;16.00;1.00;;;;;;5058512;28;20668;-54
2022/10/30 01:26:50;;;;;;;10.53;6.17;;;16.00;1.00;;;;;;5059093;28;20197;-54
2022/10/30 01:29:24;;;;;;;15.63;7.00;;;16.00;1.00;;;;;;5047176;28;20225;-54
2022/10/30 01:32:08;;;;;;;12.27;6.30;;;16.00;1.00;;;;;;5062113;28;20674;-55
2022/10/30 01:35:01;;;;;;;16.00;6.87;;;15.90;1.00;;;;;;5065648;28;20199;-53
2022/10/30 01:38:02;;;;;;;12.67;6.03;;;15.90;1.00;;;;;;5022121;28;20199;-54
2022/10/30 01:40:29;;;;;;;12.50;6.57;;;15.90;92.70;;;;;;5036253;28;20214;-53
2022/10/30 01:42:57;;;;;;;10.13;5.97;;;15.90;99.90;;;;;;5064773;28;20208;-53
2022/10/30 01:45:27;;;;;;;11.33;6.47;;;15.70;99.90;;;;;;5063967;28;20202;-54
2022/10/30 01:48:26;;;;;;;12.83;6.17;;;15.80;1.00;;;;;;5068930;28;20257;-54
2022/10/30 01:50:58;;;;;;;18.57;7.37;;;15.70;1.00;;;;;;4985618;28;20210;-55
2022/10/30 01:53:43;;;;;;;12.07;6.17;;;15.80;1.00;;;;;;5061455;28;20201;-53
2022/10/30 01:56:25;;;;;;;13.40;6.17;;;15.70;99.90;;;;;;5060746;28;20195;-53
2022/10/30 01:59:16;;;;;;;8.30;6.13;;;15.70;1.00;;;;;;5065424;28;20199;-58
2022/10/30 02:01:44;;;;;;;11.33;6.10;;;15.90;1.00;;;;;;5060940;28;20202;-55
2022/10/30 02:04:12;;;;;;;15.73;6.43;;;15.80;1.00;;;;;;5062875;28;20973;-54
2022/10/30 02:06:39;;;;;;;13.53;6.67;;;15.70;1.00;;;;;;5064818;28;20218;-55
2022/10/30 02:09:07;;;;;;;12.07;6.60;;;15.80;1.00;;;;;;5060933;28;20295;-55
2022/10/30 02:11:34;;;;;;;8.00;6.20;;;15.80;1.00;;;;;;5065313;28;20225;-54
2022/10/30 02:14:06;;;;;;;13.20;5.90;;;15.80;99.90;;;;;;5063240;28;20217;-56
2022/10/30 02:16:38;;;;;;;10.93;6.60;;;15.90;99.90;;;;;;5059973;28;20215;-56
2022/10/30 02:19:06;;;;;;;12.50;6.60;;;15.80;99.90;;;;;;5061919;28;20197;-55
2022/10/30 02:21:33;;;;;;;12.70;5.97;;;15.70;1.00;;;;;;5062871;28;20235;-54
2022/10/30 02:24:00;;;;;;;9.80;6.27;;;15.70;1.00;;;;;;5058947;28;20208;-54
2022/10/30 02:26:26;;;;;;;13.43;6.80;;;15.60;1.00;;;;;;5058084;28;20202;-54
2022/10/30 02:28:53;;;;;;;9.50;6.00;;;15.40;99.90;;;;;;5063849;28;20240;-55
2022/10/30 02:31:20;;;;;;;12.03;6.97;;;15.50;1.00;;;;;;5066323;28;20197;-55
2022/10/30 02:33:47;;;;;;;11.50;6.47;;;15.50;1.00;;;;;;5062665;28;20258;-55
2022/10/30 02:36:14;;;;;;;15.13;6.63;;;15.50;44.10;;;;;;5065269;28;20224;-55
2022/10/30 02:38:42;;;;;;;13.10;6.57;;;15.60;1.00;;;;;;5054815;28;20678;-54
2022/10/30 02:41:10;;;;;;;12.20;7.17;;;15.50;99.90;;;;;;5075646;28;20990;-55
2022/10/30 02:43:37;;;;;;;12.67;6.27;;;15.30;12.80;;;;;;5074104;28;20207;-59
2022/10/30 02:46:04;;;;;;;11.83;6.50;;;15.20;99.90;;;;;;5059791;28;20528;-54
2022/10/30 02:48:32;;;;;;;11.60;5.60;;;15.30;89.30;;;;;;5056321;28;20258;-54
2022/10/30 02:51:00;;;;;;;11.83;6.20;;;15.30;1.00;;;;;;5064030;28;20334;-54
2022/10/30 02:53:27;;;;;;;15.10;6.50;;;15.30;1.00;;;;;;5053435;28;20667;-55
2022/10/30 02:55:54;;;;;;;17.23;7.80;;;15.30;1.00;;;;;;5061437;28;20698;-53
2022/10/30 02:58:21;;;;;;;16.73;7.67;;;15.30;99.90;;;;;;5062371;28;20209;-54
2022/10/30 03:00:48;;;;;;;13.93;7.77;;;15.30;90.40;;;;;;5059906;28;20202;-55
2022/10/30 03:03:15;;;;;;;12.70;6.93;;;15.20;1.00;;;;;;5072383;28;20262;-55
2022/10/30 03:05:47;;;;;;;13.23;7.20;;;15.10;1.00;;;;;;5068567;28;20274;-54
2022/10/30 03:08:13;;;;;;;12.20;7.60;;;15.20;1.00;;;;;;5075356;28;20224;-55
2022/10/30 03:10:40;;;;;;;12.20;7.40;;;15.10;1.00;;;;;;5064483;28;20232;-54
2022/10/30 03:13:07;;;;;;;11.03;6.70;;;15.10;1.00;;;;;;5063354;28;20194;-52
2022/10/30 03:15:33;;;;;;;13.63;7.33;;;15.00;1.00;;;;;;5056991;28;20224;-54
2022/10/30 03:18:00;;;;;;;16.13;7.20;;;15.00;1.00;;;;;;5062435;28;20201;-53
2022/10/30 03:20:27;;;;;;;12.63;7.73;;;15.10;1.00;;;;;;5061902;28;20323;-53
2022/10/30 03:22:54;;;;;;;10.17;6.80;;;15.00;99.90;;;;;;5061935;28;20200;-53
2022/10/30 03:25:22;;;;;;;12.33;7.13;;;14.90;99.90;;;;;;5064700;28;20200;-55
2022/10/30 03:27:49;;;;;;;14.67;7.17;;;14.90;1.00;;;;;;5067058;28;20223;-54
2022/10/30 03:30:17;;;;;;;13.50;6.70;;;14.90;1.00;;;;;;5066173;28;20875;-54
2022/10/30 03:32:43;;;;;;;12.93;7.23;;;14.90;1.00;;;;;;5062617;28;20220;-53
2022/10/30 03:35:10;;;;;;;13.37;8.50;;;15.10;99.90;;;;;;5062843;28;20200;-53
2022/10/30 03:37:37;;;;;;;13.30;7.47;;;15.00;1.00;;;;;;5062005;28;20214;-52
2022/10/30 03:40:04;;;;;;;15.73;7.43;;;15.10;1.00;;;;;;5065170;28;20652;-53
2022/10/30 03:42:31;;;;;;;14.77;7.27;;;15.20;99.90;;;;;;5064196;28;20642;-53
2022/10/30 03:44:58;;;;;;;16.50;7.40;;;15.10;1.00;;;;;;5063858;28;20209;-54
2022/10/30 03:47:24;;;;;;;17.70;7.10;;;15.00;1.00;;;;;;5063556;28;20660;-53
2022/10/30 03:49:51;;;;;;;12.57;7.03;;;14.80;1.00;;;;;;5067064;28;20214;-53
2022/10/30 03:52:18;;;;;;;17.30;7.27;;;14.70;1.00;;;;;;5063775;28;20668;-53
2022/10/30 03:54:44;;;;;;;15.97;8.50;;;14.80;1.00;;;;;;5059432;28;20193;-54
2022/10/30 03:57:11;;;;;;;14.80;6.70;;;14.90;1.00;;;;;;5066251;28;21867;-52
2022/10/30 03:59:38;;;;;;;12.17;7.40;;;14.80;99.90;;;;;;5064154;28;21148;-54
2022/10/30 04:02:05;;;;;;;15.33;7.30;;;14.60;1.00;;;;;;5062711;28;20197;-53
2022/10/30 04:04:32;;;;;;;10.67;7.23;;;14.50;1.00;;;;;;5065254;28;20332;-53
2022/10/30 04:06:58;;;;;;;14.80;7.47;;;14.50;99.90;;;;;;5062792;28;20210;-54
2022/10/30 04:09:25;;;;;;;12.73;7.17;;;14.50;99.90;;;;;;5074391;28;20222;-54
2022/10/30 04:11:52;;;;;;;12.33;7.17;;;14.50;98.60;;;;;;5063362;28;20244;-54
2022/10/30 04:14:19;;;;;;;13.10;7.00;;;14.50;99.90;;;;;;5061983;28;20195;-54
2022/10/30 04:16:45;;;;;;;14.03;6.73;;;14.60;96.00;;;;;;5062515;28;20314;-53
2022/10/30 04:19:12;;;;;;;12.23;7.47;;;14.60;1.00;;;;;;5064169;28;20199;-54
2022/10/30 04:21:41;;;;;;;17.23;6.77;;;14.70;1.00;;;;;;5061449;28;20239;-53
2022/10/30 04:24:08;;;;;;;12.70;7.20;;;14.80;1.00;;;;;;5061339;28;20199;-54
2022/10/30 04:26:35;;;;;;;14.67;7.57;;;14.80;99.90;;;;;;5063100;28;20549;-52
2022/10/30 04:29:02;;;;;;;14.30;8.60;;;14.70;99.90;;;;;;5060359;28;20213;-54
2022/10/30 04:31:29;;;;;;;12.67;7.50;;;14.80;1.00;;;;;;5065531;28;20394;-54
2022/10/30 04:33:55;;;;;;;18.83;6.90;;;14.90;1.00;;;;;;5063161;28;20194;-53
2022/10/30 04:36:28;;;;;;;10.73;6.37;;;14.80;1.00;;;;;;5061827;28;20194;-52
2022/10/30 04:38:55;;;;;;;15.90;7.07;;;14.80;99.90;;;;;;5065307;28;20555;-52
2022/10/30 04:41:22;;;;;;;9.73;6.83;;;14.80;99.90;;;;;;5063687;28;20390;-52
2022/10/30 04:43:49;;;;;;;14.07;7.20;;;14.70;99.90;;;;;;5061416;28;20227;-52
2022/10/30 04:46:17;;;;;;;10.97;6.87;;;14.70;1.00;;;;;;5063951;28;20200;-53
2022/10/30 04:48:44;;;;;;;14.90;6.90;;;14.70;99.90;;;;;;5063481;28;20329;-53
2022/10/30 04:51:11;;;;;;;10.80;7.50;;;14.60;1.00;;;;;;5065406;28;20287;-54
2022/10/30 04:53:38;;;;;;;16.73;7.53;;;14.80;1.00;;;;;;5058657;28;20212;-54
2022/10/30 04:56:05;;;;;;;14.00;6.93;;;14.80;1.00;;;;;;5064067;28;20204;-53
2022/10/30 04:58:31;;;;;;;14.23;6.60;;;14.80;1.00;;;;;;5060648;28;20598;-53
2022/10/30 05:01:02;;;;;;;9.57;6.70;;;14.80;1.00;;;;;;5065355;28;20188;-54
2022/10/30 05:03:29;;;;;;;10.77;7.07;;;14.80;1.00;;;;;;5059852;28;20191;-54
2022/10/30 05:06:00;;;;;;;11.60;7.37;;;14.80;1.00;;;;;;5062436;28;20229;-54
2022/10/30 05:08:28;;;;;;;10.67;6.47;;;14.80;99.90;;;;;;5058636;28;20201;-52
2022/10/30 05:10:55;;;;;;;11.50;7.17;;;14.70;99.90;;;;;;5060613;28;20239;-54
2022/10/30 05:13:22;;;;;;;9.53;5.90;;;14.80;1.00;;;;;;5061194;28;20550;-54
2022/10/30 05:15:49;;;;;;;14.90;6.80;;;14.60;1.00;;;;;;5059248;28;20665;-52
2022/10/30 05:18:15;;;;;;;10.67;6.87;;;14.60;60.20;;;;;;5061130;28;20205;-54
2022/10/30 05:20:42;;;;;;;13.60;6.77;;;14.60;97.50;;;;;;5061673;28;20215;-54
2022/10/30 05:23:09;;;;;;;11.27;7.20;;;14.60;99.90;;;;;;5063951;28;20202;-54
2022/10/30 05:25:35;;;;;;;17.83;7.47;;;14.70;99.90;;;;;;5062301;28;21124;-53
2022/10/30 05:28:05;;;;;;;14.77;7.13;;;14.50;53.10;;;;;;5065837;28;20238;-54
2022/10/30 05:30:33;;;;;;;10.50;6.50;;;14.30;99.90;;;;;;5060929;28;20214;-54
2022/10/30 05:33:02;;;;;;;17.53;9.10;;;14.20;99.90;;;;;;5072402;28;20196;-54
2022/10/30 05:35:33;;;;;;;13.87;7.23;;;14.20;99.90;;;;;;5063813;28;20196;-55
2022/10/30 05:38:02;;;;;;;14.67;6.73;;;14.30;99.90;;;;;;5060288;28;20767;-54
2022/10/30 05:40:29;;;;;;;11.83;7.80;;;14.30;99.90;;;;;;5060601;28;20348;-55
2022/10/30 05:42:56;;;;;;;13.87;7.53;;;14.30;99.90;;;;;;5060980;28;20197;-54
2022/10/30 05:45:23;;;;;;;12.10;6.87;;;14.30;99.90;;;;;;5059322;28;20725;-54
2022/10/30 05:47:58;;;;;;;11.17;7.10;;;14.40;99.90;;;;;;5061200;28;20257;-54
2022/10/30 05:50:27;;;;;;;9.17;6.30;;;14.50;99.90;;;;;;5061318;28;20232;-53
2022/10/30 05:52:58;;;;;;;12.20;7.00;;;14.50;99.90;;;;;;5059364;28;20271;-54
2022/10/30 05:55:25;;;;;;;14.00;6.87;;;14.50;99.90;;;;;;5060184;28;20641;-53
2022/10/30 05:58:00;;;;;;;16.43;7.03;;;14.50;99.90;;;;;;5059217;28;20882;-54
2022/10/30 06:00:31;;;;;;;10.97;6.50;;;14.60;80.20;;;;;;5057110;28;20574;-52
2022/10/30 06:03:06;;;;;;;14.53;7.80;;;14.50;86.50;;;;;;5062425;28;20223;-55
2022/10/30 06:05:35;;;;;;;14.23;7.17;;;14.40;99.90;;;;;;5062501;28;20230;-54
2022/10/30 06:08:04;;;;;;;13.83;7.07;;;14.50;99.90;;;;;;5061307;28;20211;-53
2022/10/30 06:10:31;;;;;;;18.77;6.93;;;14.40;99.90;;;;;;5059503;28;20688;-55
2022/10/30 06:13:00;;;;;;;9.90;7.03;;;14.50;99.90;;;;;;5064831;28;20196;-54
2022/10/30 06:15:28;;;;;;;15.77;7.30;;;14.40;99.90;;;;;;5063267;28;20287;-53
2022/10/30 06:17:56;;;;;;;13.03;6.23;;;14.50;99.90;;;;;;5066851;28;20194;-53
2022/10/30 06:20:26;;;;;;;11.53;6.23;;;14.50;99.90;;;;;;5066297;28;20217;-53
2022/10/30 06:22:58;;;;;;;11.03;6.57;;;14.30;33.00;;;;;;5077408;28;20206;-53
2022/10/30 06:25:26;;;;;;;11.27;6.43;;;14.30;74.60;;;;;;5064364;28;20190;-54
2022/10/30 06:27:53;;;;;;;12.00;6.13;;;14.20;91.60;;;;;;5064174;28;20292;-54
2022/10/30 06:30:20;;;;;;;12.57;6.87;;;14.20;99.90;;;;;;5064561;28;20220;-54
2022/10/30 06:32:48;;;;;;;15.80;7.53;;;14.10;99.90;;;;;;5065711;28;20567;-54
2022/10/30 06:35:15;;;;;;;14.87;7.37;;;14.20;99.90;;;;;;5064888;28;20193;-54
2022/10/30 06:37:46;;;;;;;13.13;6.03;;;14.20;99.90;;;;;;5064699;28;20275;-54
2022/10/30 06:40:14;;;;;;;18.00;7.13;;;14.20;99.90;;;;;;5062972;28;20247;-55
2022/10/30 06:42:45;;;;;;;14.13;6.63;;;14.30;99.90;;;;;;5066187;28;20201;-54
2022/10/30 06:45:13;;;;;;;10.47;6.13;;;14.20;99.90;;;;;;5064137;28;20230;-54
2022/10/30 06:47:40;;;;;;;12.87;7.87;;;14.30;99.90;;;;;;5063868;28;20208;-54
2022/10/30 06:50:10;;;;;;;11.07;6.40;;;14.30;99.90;;;;;;5062697;28;20221;-54
2022/10/30 06:52:37;;;;;;;11.93;7.13;;;14.30;99.90;;;;;;5059285;28;20197;-54
2022/10/30 06:55:04;;;;;;;12.97;7.67;;;14.30;99.90;;;;;;5064028;28;20188;-54
2022/10/30 06:57:32;;;;;;;12.13;5.90;;;14.30;99.90;;;;;;5063597;28;20631;-54
2022/10/30 06:59:58;;;;;;;11.27;6.60;;;14.20;99.90;;;;;;5061299;28;20708;-55
2022/10/30 07:02:25;;;;;;;11.03;6.63;;;14.20;99.90;;;;;;5051920;28;20203;-53
2022/10/30 07:04:52;;;;;;;10.77;6.67;;;14.20;99.90;;;;;;5064807;28;20232;-55
2022/10/30 07:07:19;;;;;;;11.37;6.90;;;14.30;99.90;;;;;;5060894;28;20214;-55
2022/10/30 07:09:46;;;;;;;12.37;6.60;;;14.40;99.90;;;;;;5061849;28;20236;-55
2022/10/30 07:12:12;;;;;;;9.07;6.30;;;14.50;99.90;;;;;;5062998;28;20543;-54
2022/10/30 07:14:40;;;;;;;9.93;6.50;;;14.50;99.90;;;;;;5063717;28;20637;-54
2022/10/30 07:17:07;;;;;;;12.00;6.50;;;14.60;99.90;;;;;;5063121;28;20208;-54
2022/10/30 07:19:33;;;;;;;13.47;7.03;;;14.70;99.90;;;;;;5061615;28;20206;-53
2022/10/30 07:22:00;;;;;;;13.10;6.80;;;14.70;1.00;;;;;;5058993;28;20209;-53
2022/10/30 07:24:28;;;;;;;9.33;6.63;;;14.70;1.00;;;;;;5060961;28;20251;-55
2022/10/30 07:26:55;;;;;;;11.10;7.00;;;14.70;1.00;;;;;;5063208;28;20253;-55
2022/10/30 07:29:22;;;;;;;9.17;6.67;;;14.80;87.70;;;;;;5060303;28;20216;-53
2022/10/30 07:31:48;;;;;;;13.77;6.60;;;14.90;1.00;;;;;;5058515;28;20564;-54
2022/10/30 07:34:28;;;;;;;9.97;6.67;;;14.90;1.00;;;;;;5061173;28;20259;-54
2022/10/30 07:36:55;;;;;;;10.50;7.23;;;15.00;1.00;;;;;;5060348;28;20197;-54
2022/10/30 07:39:21;;;;;;;12.57;7.07;;;15.00;1.00;;;;;;5059203;28;20203;-53
2022/10/30 07:41:49;;;;;;;11.27;7.17;;;15.00;1.00;;;;;;5063640;28;20552;-53
2022/10/30 07:44:16;;;;;;;16.63;7.60;;;15.10;1.00;;;;;;5061395;28;20685;-54
2022/10/30 07:46:43;;;;;;;9.47;6.47;;;15.10;99.90;;;;;;5061907;28;20552;-54
2022/10/30 07:49:10;;;;;;;13.90;7.73;;;15.20;1.00;;;;;;5045109;28;20563;-53
2022/10/30 07:51:36;;;;;;;13.00;7.00;;;15.20;1.00;;;;;;5064413;28;20209;-53
2022/10/30 07:54:03;;;;;;;9.53;7.47;;;15.30;1.00;;;;;;5063014;28;20193;-54
2022/10/30 07:56:30;;;;;;;13.50;7.73;;;15.30;1.00;;;;;;5061538;28;20190;-54
2022/10/30 07:58:57;;;;;;;11.80;7.40;;;15.30;1.00;;;;;;5063589;28;20283;-53
2022/10/30 08:01:23;;;;;;;17.60;7.27;;;15.30;1.00;;;;;;5058362;28;20199;-55
2022/10/30 08:03:50;;;;;;;15.50;7.20;;;15.50;1.00;;;;;;5061761;28;20683;-54
2022/10/30 08:06:17;;;;;;;15.37;7.43;;;15.50;1.00;;;;;;5061295;28;20235;-52
2022/10/30 08:08:50;;;;;;;12.43;8.10;;;15.70;72.70;;;;;;5061951;28;20215;-54
2022/10/30 08:11:17;;;;;;;15.73;8.53;;;15.80;1.00;;;;;;5054111;28;20234;-55
2022/10/30 08:13:43;;;;;;;12.97;7.77;;;15.80;99.90;;;;;;5060379;28;20203;-57
2022/10/30 08:16:11;;;;;;;16.33;9.60;;;16.00;99.90;;;;;;5059335;28;20256;-54
2022/10/30 08:18:41;;;;;;;14.27;8.23;;;16.20;1.00;;;;;;5059955;28;20228;-54
2022/10/30 08:21:08;;;;;;;17.67;8.30;;;16.40;1.00;;;;;;5057637;28;20232;-53
2022/10/30 08:23:35;;;;;;;15.87;8.53;;;16.60;1.00;;;;;;5059850;28;20203;-53
2022/10/30 08:26:02;;;;;;;12.43;7.93;;;16.50;99.90;;;;;;5060210;28;20282;-53
2022/10/30 08:28:29;;;;;;;19.10;8.03;;;16.60;1.00;;;;;;5060728;28;21108;-54
2022/10/30 08:30:59;;;;;;;17.07;7.93;;;16.50;34.70;;;;;;5061937;28;20214;-54
2022/10/30 08:33:27;;;;;;;13.53;8.53;;;16.50;1.00;;;;;;5059341;28;20284;-53
2022/10/30 08:35:57;;;;;;;16.42;7.82;;;16.50;1.00;;;;;;4787510;28;10001424;-54
2022/10/30 08:38:26;;;;;;;14.03;8.47;;;16.80;1.00;;;;;;5047420;28;20427;-53
2022/10/30 08:40:53;;;;;;;15.50;8.20;;;16.70;1.00;;;;;;5061638;28;20202;-53
2022/10/30 08:43:20;;;;;;;13.17;8.40;;;16.90;1.00;;;;;;5049856;28;20202;-56
2022/10/30 08:45:47;;;;;;;16.43;8.10;;;16.90;99.90;;;;;;5054285;28;20205;-55
2022/10/30 08:48:15;;;;;;;19.20;8.07;;;17.20;1.00;;;;;;5060709;28;20329;-55
2022/10/30 08:50:43;;;;;;;15.90;7.97;;;17.30;1.00;;;;;;5058820;28;20343;-56
2022/10/30 08:53:11;;;;;;;16.70;8.70;;;17.60;1.00;;;;;;5066279;28;20817;-56
2022/10/30 08:55:38;;;;;;;15.13;8.07;;;17.60;1.00;;;;;;5061727;28;20206;-55
2022/10/30 08:58:05;;;;;;;18.30;8.27;;;17.90;1.00;;;;;;5061593;28;20201;-55
2022/10/30 09:00:33;;;;;;;14.07;8.90;;;18.20;1.00;;;;;;5057906;28;20264;-55
2022/10/30 09:02:59;;;;;;;19.03;8.43;;;18.00;1.00;;;;;;5068605;28;20200;-55
2022/10/30 09:05:27;;;;;;;12.77;8.53;;;18.10;12.60;;;;;;5063217;28;20736;-56
2022/10/30 09:07:56;;;;;;;15.80;8.33;;;18.70;1.00;;;;;;5056451;28;20199;-55
2022/10/30 09:10:23;;;;;;;17.20;7.90;;;19.00;99.90;;;;;;5065015;28;20250;-54
2022/10/30 09:12:58;;;;;;;13.67;7.73;;;19.00;99.90;;;;;;5059507;28;20650;-55
2022/10/30 09:15:25;;;;;;;10.43;7.67;;;19.40;99.90;;;;;;5061155;28;20199;-54
2022/10/30 09:18:03;;;;;;;14.33;8.13;;;19.60;1.00;;;;;;5074178;28;20565;-55
2022/10/30 09:20:30;;;;;;;16.87;8.10;;;19.70;1.00;;;;;;5066073;28;20204;-55
2022/10/30 09:22:56;;;;;;;16.40;8.23;;;19.90;1.00;;;;;;5061423;28;20219;-54
2022/10/30 09:25:25;;;;;;;15.03;7.40;;;19.90;99.90;;;;;;5061482;28;20639;-56
2022/10/30 09:27:51;;;;;;;12.30;7.50;;;19.70;99.90;;;;;;5056467;28;20669;-56
2022/10/30 09:30:18;;;;;;;16.40;7.63;;;19.60;99.90;;;;;;5059972;28;20216;-56
2022/10/30 09:32:45;;;;;;;12.50;7.67;;;19.60;1.00;;;;;;5063398;28;20199;-55
2022/10/30 09:35:18;;;;;;;12.37;7.47;;;19.50;1.00;;;;;;5059239;28;20200;-56
2022/10/30 09:37:45;;;;;;;11.13;7.40;;;19.50;1.00;;;;;;5063415;28;20206;-54
2022/10/30 09:40:47;;;;;;;17.00;7.50;;;19.40;1.00;;;;;;5063937;28;20195;-55
2022/10/30 09:43:13;;;;;;;12.67;7.20;;;19.50;1.00;;;;;;5057655;28;20731;-54
2022/10/30 09:45:46;;;;;;;14.77;7.47;;;19.50;1.00;;;;;;5066340;28;20203;-55
2022/10/30 09:48:37;;;;;;;17.17;7.60;;;19.70;1.00;;;;;;5071828;28;20678;-55
2022/10/30 09:51:28;;;;;;;15.50;6.90;;;19.70;1.00;;;;;;5064489;28;20227;-56
2022/10/30 09:54:05;;;;;;;15.37;8.60;;;20.00;1.00;;;;;;5067646;28;20189;-55
2022/10/30 09:56:41;;;;;;;12.53;7.27;;;20.20;99.90;;;;;;5067637;28;20202;-56
2022/10/30 09:59:16;;;;;;;14.50;7.33;;;20.10;99.90;;;;;;5074274;28;20674;-55
2022/10/30 10:02:06;;;;;;;18.63;7.33;;;20.10;99.90;;;;;;5065110;28;20231;-55
2022/10/30 10:04:42;;;;;;;14.63;5.90;;;20.30;99.90;;;;;;5029251;28;20352;-55
2022/10/30 10:07:37;;;;;;;12.03;6.57;;;20.20;99.90;;;;;;5064378;28;20633;-56
2022/10/30 10:10:16;;;;;;;16.57;6.43;;;20.30;99.90;;;;;;5062327;28;20247;-55
2022/10/30 10:12:47;;;;;;;16.20;6.50;;;20.40;99.90;;;;;;5067720;28;20193;-55
2022/10/30 10:15:17;;;;;;;15.03;6.43;;;20.30;99.90;;;;;;5071278;28;20197;-55
2022/10/30 10:17:45;;;;;;;12.57;6.83;;;20.50;99.90;;;;;;5062047;28;20214;-55
2022/10/30 10:20:28;;;;;;;11.10;5.97;;;20.60;1.00;;;;;;5066110;28;20201;-55
2022/10/30 10:22:58;;;;;;;14.13;6.50;;;20.80;1.00;;;;;;5066169;28;20934;-56
2022/10/30 10:25:27;;;;;;;11.17;6.13;;;21.00;57.00;;;;;;5067432;28;20226;-55
2022/10/30 10:28:29;;;;;;;9.63;7.03;;;21.10;1.00;;;;;;5070387;28;20204;-55
2022/10/30 10:31:37;;;;;;;9.50;5.87;;;21.20;1.00;;;;;;5031588;28;20326;-56
2022/10/30 10:34:39;;;;;;;12.80;6.40;;;20.70;1.00;;;;;;5059716;28;20195;-55
2022/10/30 10:37:37;;;;;;;12.33;6.07;;;20.70;1.10;;;;;;5060330;28;20299;-55
2022/10/30 10:40:13;;;;;;;14.77;6.07;;;20.80;1.00;;;;;;5067914;28;20204;-56
2022/10/30 10:42:43;;;;;;;10.70;6.37;;;20.80;1.00;;;;;;5054056;28;20214;-55
2022/10/30 10:45:44;;;;;;;15.40;6.10;;;20.80;1.00;;;;;;5069563;28;20204;-55
2022/10/30 10:48:29;;;;;;;13.77;5.57;;;21.20;1.00;;;;;;5072780;28;20376;-56
2022/10/30 10:51:05;;;;;;;12.80;6.87;;;21.10;1.00;;;;;;5069018;28;20249;-55
2022/10/30 10:53:46;;;;;;;11.83;6.30;;;21.00;1.00;;;;;;5074676;28;20681;-55
2022/10/30 10:56:13;;;;;;;12.93;6.20;;;21.10;1.00;;;;;;5074909;28;20201;-56
2022/10/30 10:58:56;;;;;;;11.53;6.70;;;21.10;1.00;;;;;;5068050;28;20658;-55
2022/10/30 11:01:37;;;;;;;13.17;6.83;;;21.10;1.00;;;;;;5060834;28;20599;-55
2022/10/30 11:04:20;;;;;;;13.33;7.30;;;21.00;1.00;;;;;;5053380;28;20297;-57
2022/10/30 11:06:50;;;;;;;15.63;6.97;;;21.10;1.00;;;;;;5069043;28;20541;-53
2022/10/30 11:09:22;;;;;;;11.47;6.30;;;21.20;1.00;;;;;;5067496;28;20650;-53
2022/10/30 11:11:51;;;;;;;13.33;7.27;;;21.40;1.00;;;;;;5059274;28;21210;-56
2022/10/30 11:14:20;;;;;;;13.37;6.93;;;21.60;1.00;;;;;;5068912;28;20692;-55
2022/10/30 11:17:14;;;;;;;13.37;7.40;;;21.70;1.00;;;;;;5059669;28;20517;-55
2022/10/30 11:19:41;;;;;;;12.47;6.30;;;21.80;1.00;;;;;;5055515;28;20738;-56
2022/10/30 11:22:31;;;;;;;9.50;6.60;;;21.70;1.00;;;;;;5070465;28;20318;-56
2022/10/30 11:25:18;;;;;;;10.07;6.10;;;21.60;1.00;;;;;;5061487;28;20220;-55
2022/10/30 11:27:56;;;;;;;16.33;5.97;;;21.90;1.00;;;;;;5072423;28;20232;-55
2022/10/30 11:30:27;;;;;;;13.60;6.67;;;21.90;1.00;;;;;;5068269;28;20215;-54
2022/10/30 11:32:58;;;;;;;9.87;6.10;;;21.80;1.00;;;;;;5062754;28;20256;-55
2022/10/30 11:35:25;;;;;;;12.00;6.53;;;21.70;1.00;;;;;;5068083;28;20198;-55
2022/10/30 11:38:16;;;;;;;11.90;6.50;;;21.80;1.00;;;;;;5065322;28;20280;-56
2022/10/30 11:40:50;;;;;;;12.57;6.17;;;21.90;1.00;;;;;;5076741;28;20344;-55
2022/10/30 11:43:22;;;;;;;10.03;6.47;;;21.90;1.00;;;;;;5054368;28;20199;-54
2022/10/30 11:45:50;;;;;;;12.53;6.20;;;21.80;1.00;;;;;;5066524;28;20196;-56
2022/10/30 11:48:26;;;;;;;15.07;6.73;;;21.80;1.00;;;;;;5052461;28;20561;-55
2022/10/30 11:50:58;;;;;;;13.93;6.10;;;21.70;1.00;;;;;;5053907;28;20207;-54
2022/10/30 11:53:33;;;;;;;11.93;5.93;;;21.70;1.00;;;;;;5052201;28;20221;-55
2022/10/30 11:56:02;;;;;;;13.53;7.13;;;21.70;1.00;;;;;;5051004;28;20190;-56
2022/10/30 11:58:41;;;;;;;13.97;6.90;;;22.00;1.00;;;;;;5050126;28;20191;-55
2022/10/30 12:01:30;;;;;;;10.83;5.90;;;21.60;1.00;;;;;;5052001;28;20281;-56
2022/10/30 12:04:14;;;;;;;12.97;6.63;;;21.50;1.00;;;;;;5054809;28;20207;-55
2022/10/30 12:06:41;;;;;;;10.30;6.70;;;21.40;1.00;;;;;;5064057;28;20218;-55
2022/10/30 12:09:18;;;;;;;9.50;6.20;;;21.40;1.00;;;;;;5052333;28;20536;-56
2022/10/30 12:11:46;;;;;;;13.70;5.30;;;21.30;1.00;;;;;;5052670;28;20303;-53
2022/10/30 12:14:21;;;;;;;16.90;6.77;;;21.10;1.00;;;;;;5052280;28;20198;-54
2022/10/30 12:16:50;;;;;;;12.90;6.40;;;21.00;1.00;;;;;;5052821;28;20198;-57
2022/10/30 12:19:22;;;;;;;14.90;6.27;;;21.00;1.00;;;;;;5054536;28;20203;-54
2022/10/30 12:22:00;;;;;;;15.87;6.67;;;21.10;1.00;;;;;;5055825;28;20204;-56
2022/10/30 12:24:31;;;;;;;12.13;6.37;;;21.20;1.00;;;;;;5053380;28;20725;-56
2022/10/30 12:27:02;;;;;;;14.33;6.70;;;21.20;1.00;;;;;;5050156;28;20203;-56
2022/10/30 12:30:01;;;;;;;13.67;7.40;;;21.20;1.00;;;;;;5051875;28;20206;-57
2022/10/30 12:32:42;;;;;;;13.53;7.00;;;21.10;1.00;;;;;;5029258;28;20360;-57
2022/10/30 12:35:47;;;;;;;14.83;6.00;;;20.90;1.00;;;;;;5052768;28;20202;-55
2022/10/30 12:38:24;;;;;;;11.37;6.30;;;21.00;1.00;;;;;;5054264;28;20287;-55
2022/10/30 12:41:04;;;;;;;12.70;5.80;;;20.80;1.00;;;;;;5056524;28;20199;-55
2022/10/30 12:43:35;;;;;;;14.53;7.00;;;20.80;1.00;;;;;;5056555;28;20202;-54
2022/10/30 12:46:27;;;;;;;15.80;6.77;;;20.90;1.00;;;;;;5062293;28;20202;-55
2022/10/30 12:49:16;;;;;;;14.47;6.23;;;20.80;1.00;;;;;;5059681;28;20203;-55
2022/10/30 12:52:04;;;;;;;13.83;6.50;;;20.80;1.00;;;;;;5062658;28;20357;-56
2022/10/30 12:54:52;;;;;;;16.67;6.33;;;20.80;1.00;;;;;;5058436;28;20220;-55
2022/10/30 12:57:43;;;;;;;14.27;6.93;;;20.90;1.00;;;;;;5057368;28;20566;-54
2022/10/30 13:00:13;;;;;;;12.77;7.10;;;20.90;1.00;;;;;;5060362;28;20193;-55
2022/10/30 13:02:49;;;;;;;15.87;6.57;;;21.00;1.00;;;;;;5058952;28;20607;-56
2022/10/30 13:05:30;;;;;;;10.87;6.37;;;21.10;1.00;;;;;;5062324;28;20787;-55